Time;durP1;ratioP1;P1;durP2;ratioP2;P2;SDS_P1;SDS_P2;PMS_P1;PMS_P2;Temp;Humidity;BMP_temperature;BMP_pressure;BME280_temperature;BME280_humidity;BME280_pressure;Samples;Min_cycle;Max_cycle;Signal;HPM_P1;HPM_P2
2023/08/19 00:01:18;;;;;;;4.88;4.03;;;20.00;99.90;;;20.91;90.78;97863.63;10410784;28;20236;-68
2023/08/19 00:06:37;;;;;;;4.75;4.28;;;20.00;99.90;;;20.90;91.25;97856.69;10416790;28;20427;-67
2023/08/19 00:11:41;;;;;;;5.18;3.85;;;20.00;99.90;;;20.93;91.29;97856.72;10418008;28;20234;-68
2023/08/19 00:16:45;;;;;;;4.93;4.45;;;20.00;99.90;;;20.91;91.62;97858.41;10420507;28;20225;-68
2023/08/19 00:21:48;;;;;;;4.85;4.45;;;20.00;99.90;;;20.79;91.79;97853.91;10407358;28;20226;-67
2023/08/19 00:26:51;;;;;;;4.05;3.75;;;19.90;99.90;;;20.77;92.49;97862.50;10461793;28;20224;-67
2023/08/19 00:31:56;;;;;;;4.32;3.90;;;19.80;99.90;;;20.69;93.03;97858.09;10471158;28;20256;-68
2023/08/19 00:36:59;;;;;;;4.10;3.80;;;19.80;99.90;;;20.69;92.36;97854.63;10470577;28;20220;-67
2023/08/19 00:42:03;;;;;;;4.38;3.97;;;19.70;99.90;;;20.54;93.02;97857.78;10471228;28;20239;-69
2023/08/19 00:47:07;;;;;;;5.35;4.18;;;19.60;99.90;;;20.49;93.50;97859.44;10463309;28;20251;-68
2023/08/19 00:52:10;;;;;;;4.18;3.78;;;19.50;99.90;;;20.51;93.79;97862.91;10468867;28;20787;-67
2023/08/19 00:57:14;;;;;;;4.35;3.95;;;19.50;99.90;;;20.42;93.50;97857.56;10466441;28;20263;-67
2023/08/19 01:02:18;;;;;;;5.50;4.07;;;19.40;99.90;;;20.26;94.22;97856.41;10462602;28;20228;-68
2023/08/19 01:07:31;;;;;;;4.78;4.13;;;19.30;99.90;;;20.15;94.79;97842.34;10473158;28;20229;-67
2023/08/19 01:12:44;;;;;;;4.38;4.03;;;19.20;99.90;;;20.14;94.64;97845.78;10459668;28;20221;-68
2023/08/19 01:17:50;;;;;;;4.88;4.13;;;19.20;99.90;;;20.10;94.79;97844.84;10467652;28;20228;-69
2023/08/19 01:23:01;;;;;;;4.90;4.50;;;19.20;99.90;;;19.99;95.29;97831.66;10464962;28;21341;-67
2023/08/19 01:28:06;;;;;;;4.63;4.22;;;19.20;99.90;;;19.99;95.53;97834.25;10462234;28;20639;-68
2023/08/19 01:33:10;;;;;;;4.95;4.47;;;19.10;99.90;;;19.94;95.44;97832.41;10462952;28;20221;-67
2023/08/19 01:38:19;;;;;;;5.00;4.45;;;19.10;99.90;;;19.98;95.44;97824.72;10462177;28;20256;-67
2023/08/19 01:43:24;;;;;;;5.78;5.20;;;19.10;99.90;;;19.99;95.37;97835.97;10464188;28;20255;-68
2023/08/19 01:48:28;;;;;;;4.90;4.40;;;19.10;99.90;;;19.96;95.58;97835.94;10454892;28;20233;-68
2023/08/19 01:53:31;;;;;;;5.03;4.57;;;19.00;99.90;;;19.89;95.86;97839.25;10450330;28;20225;-68
2023/08/19 01:58:35;;;;;;;4.47;4.13;;;19.00;99.90;;;19.87;96.06;97840.94;10459176;28;21059;-68
2023/08/19 02:03:38;;;;;;;6.00;4.40;;;18.90;99.90;;;19.76;96.71;97833.81;10463127;28;20227;-68
2023/08/19 02:08:41;;;;;;;5.35;4.78;;;18.90;99.90;;;19.80;96.26;97845.09;10466853;28;20583;-68
2023/08/19 02:13:46;;;;;;;5.10;4.60;;;18.90;99.90;;;19.73;96.41;97833.75;10470987;28;20571;-67
2023/08/19 02:18:49;;;;;;;5.13;4.55;;;18.80;99.90;;;19.69;96.42;97842.31;10457465;28;20318;-68
2023/08/19 02:23:53;;;;;;;5.07;4.68;;;18.80;99.90;;;19.64;96.68;97843.03;10458004;28;20235;-67
2023/08/19 02:28:57;;;;;;;5.20;4.70;;;18.70;99.90;;;19.56;97.11;97851.50;10459267;28;20225;-68
2023/08/19 02:34:01;;;;;;;5.10;4.70;;;18.70;99.90;;;19.56;97.34;97846.31;10462615;28;20818;-67
2023/08/19 02:39:04;;;;;;;5.20;4.80;;;18.70;99.90;;;19.46;98.19;97848.66;10464616;28;20237;-68
2023/08/19 02:44:08;;;;;;;5.80;4.93;;;18.60;99.90;;;19.46;98.65;97848.66;10458764;28;20227;-68
2023/08/19 02:49:13;;;;;;;4.95;4.55;;;18.60;99.90;;;19.40;98.98;97856.31;10456452;28;20738;-68
2023/08/19 02:54:16;;;;;;;6.60;5.25;;;18.50;99.90;;;19.40;98.95;97854.63;10461626;28;20266;-68
2023/08/19 02:59:20;;;;;;;5.22;4.82;;;18.50;99.90;;;19.39;98.69;97857.16;10468980;28;20228;-67
2023/08/19 03:04:24;;;;;;;5.13;4.60;;;18.50;99.90;;;19.43;98.10;97851.19;10457759;28;20235;-68
2023/08/19 03:09:27;;;;;;;5.00;4.57;;;18.40;99.90;;;19.33;98.40;97853.59;10462827;28;20235;-68
2023/08/19 03:14:31;;;;;;;5.55;5.05;;;18.40;99.90;;;19.22;98.74;97852.47;10457111;28;20228;-68
2023/08/19 03:19:34;;;;;;;5.60;5.07;;;18.40;99.90;;;19.32;98.57;97857.03;10456376;28;20232;-67
2023/08/19 03:24:37;;;;;;;4.90;4.50;;;18.40;99.90;;;19.21;99.69;97855.06;10456083;28;20263;-67
2023/08/19 03:29:42;;;;;;;5.90;5.18;;;18.40;99.90;;;19.19;100.00;97854.13;10461622;28;20319;-67
2023/08/19 03:34:45;;;;;;;5.75;5.18;;;18.30;99.90;;;19.21;99.67;97855.91;10457131;28;20224;-67
2023/08/19 03:39:48;;;;;;;5.82;4.90;;;18.30;99.90;;;19.16;99.98;97847.16;10456658;28;20232;-67
2023/08/19 03:44:53;;;;;;;5.28;4.78;;;18.40;99.90;;;19.17;100.00;97854.06;10470271;28;20220;-67
2023/08/19 03:49:56;;;;;;;5.82;4.90;;;18.40;99.90;;;19.19;100.00;97854.13;10468273;28;20235;-67
2023/08/19 03:54:59;;;;;;;5.57;5.18;;;18.40;99.90;;;19.23;99.93;97858.53;10469443;28;20233;-67
2023/08/19 04:00:07;;;;;;;6.80;5.75;;;18.40;99.90;;;19.28;99.86;97850.03;10473834;28;20243;-68
2023/08/19 04:05:12;;;;;;;6.38;5.28;;;18.50;99.90;;;19.30;99.94;97852.66;10459884;28;20714;-67
2023/08/19 04:10:16;;;;;;;5.75;5.25;;;18.50;99.90;;;19.30;99.85;97843.16;10465253;28;20251;-67
2023/08/19 04:15:21;;;;;;;6.55;5.60;;;18.50;99.90;;;19.19;99.64;97856.72;10466181;28;20231;-67
2023/08/19 04:20:24;;;;;;;5.80;5.32;;;18.40;99.90;;;19.17;100.00;97866.16;10472011;28;20712;-68
2023/08/19 04:25:27;;;;;;;5.45;4.95;;;18.40;99.90;;;19.20;99.83;97854.19;10462093;28;20233;-67
2023/08/19 04:30:32;;;;;;;5.90;5.32;;;18.40;99.90;;;19.23;99.79;97859.44;10458739;28;20287;-66
2023/08/19 04:35:35;;;;;;;5.75;5.35;;;18.40;99.90;;;19.31;99.44;97865.63;10457444;28;20670;-68
2023/08/19 04:40:38;;;;;;;6.32;5.82;;;18.50;99.90;;;19.29;99.27;97866.47;10456895;28;20239;-68
2023/08/19 04:45:43;;;;;;;5.90;5.10;;;18.50;99.90;;;19.41;98.91;97865.88;10465144;28;20228;-67
2023/08/19 04:50:47;;;;;;;5.95;5.28;;;18.60;99.90;;;19.49;98.83;97874.69;10458371;28;21950;-68
2023/08/19 04:55:59;;;;;;;6.35;5.15;;;18.70;99.90;;;19.45;98.12;97872.84;10461426;28;20236;-68
2023/08/19 05:01:03;;;;;;;5.72;5.32;;;18.70;99.90;;;19.60;98.02;97873.19;10464486;28;20221;-68
2023/08/19 05:06:07;;;;;;;6.05;5.60;;;18.80;99.90;;;19.64;96.57;97875.03;10464405;28;20244;-68
2023/08/19 05:11:10;;;;;;;5.70;5.20;;;18.90;99.90;;;19.55;97.22;97874.81;10466153;28;20708;-68
2023/08/19 05:16:14;;;;;;;5.50;5.13;;;18.70;99.90;;;19.62;97.43;97866.31;10464570;28;20584;-68
2023/08/19 05:21:17;;;;;;;6.03;5.53;;;18.80;99.90;;;19.76;96.77;97867.53;10466166;28;20224;-67
2023/08/19 05:26:21;;;;;;;6.82;5.88;;;19.00;99.90;;;20.03;95.10;97879.31;10465250;28;20775;-68
2023/08/19 05:31:25;;;;;;;5.60;5.10;;;19.20;99.90;;;20.86;91.96;97880.84;10462436;28;20229;-68
2023/08/19 05:36:29;;;;;;;5.50;4.95;;;20.00;99.90;;;22.03;82.83;97880.84;10458714;28;20641;-68
2023/08/19 05:41:32;;;;;;;5.90;5.10;;;21.00;99.90;;;23.00;79.24;97887.97;10460335;28;20646;-67
2023/08/19 05:46:36;;;;;;;5.28;4.78;;;22.40;99.90;;;23.76;74.38;97894.63;10453966;28;20590;-68
2023/08/19 05:51:40;;;;;;;5.90;4.93;;;23.50;99.90;;;24.74;69.61;97897.56;10456380;28;20711;-68
2023/08/19 05:56:43;;;;;;;5.20;4.70;;;24.20;99.90;;;25.19;68.00;97902.88;10459674;28;20618;-68
2023/08/19 06:01:47;;;;;;;4.68;4.28;;;24.50;99.90;;;25.84;64.28;97892.31;10457080;28;20618;-68
2023/08/19 06:06:50;;;;;;;5.65;4.53;;;24.90;99.90;;;26.01;60.99;97900.13;10460228;28;20239;-68
2023/08/19 06:11:57;;;;;;;5.13;4.38;;;24.80;99.90;;;26.26;61.88;97900.84;10446853;28;20317;-68
2023/08/19 06:17:01;;;;;;;4.72;4.40;;;24.60;99.90;;;26.86;58.76;97913.66;10470521;28;20228;-68
2023/08/19 06:22:05;;;;;;;4.20;3.90;;;24.80;99.90;;;27.06;58.72;97905.63;10446264;28;20618;-69
2023/08/19 06:27:08;;;;;;;4.50;4.10;;;24.90;99.90;;;27.69;56.27;97905.09;10451865;28;20247;-68
2023/08/19 06:32:14;;;;;;;4.47;4.07;;;25.60;99.90;;;28.51;53.62;97911.16;10450563;28;20232;-69
2023/08/19 06:37:21;;;;;;;4.55;4.13;;;26.70;99.90;;;29.05;51.47;97923.56;10456721;28;20247;-69
2023/08/19 06:42:26;;;;;;;3.70;3.42;;;27.20;99.90;;;29.17;51.08;97931.25;10466705;28;20238;-69
2023/08/19 06:47:33;;;;;;;4.35;4.00;;;27.30;99.90;;;29.69;50.24;97937.44;10455768;28;20235;-68
2023/08/19 06:52:38;;;;;;;4.20;3.88;;;27.70;99.90;;;30.12;49.58;97930.47;10461735;28;20237;-70
2023/08/19 06:57:49;;;;;;;4.10;3.75;;;28.30;99.90;;;30.37;47.91;97921.19;10464821;28;20235;-69
2023/08/19 07:02:54;;;;;;;4.32;3.92;;;28.40;99.90;;;30.67;47.29;97914.34;10451598;28;20225;-70
2023/08/19 07:08:00;;;;;;;3.97;3.50;;;28.50;99.90;;;30.80;47.38;97920.25;10456507;28;20236;-69
2023/08/19 07:13:04;;;;;;;5.10;4.10;;;28.80;99.90;;;31.21;46.29;97921.03;10459405;28;20232;-68
2023/08/19 07:18:11;;;;;;;4.68;3.50;;;29.20;98.90;;;31.92;45.12;97925.41;10459335;28;20316;-68
2023/08/19 07:23:15;;;;;;;4.07;3.67;;;29.60;98.30;;;32.08;43.76;97936.44;10453262;28;20236;-68
2023/08/19 07:28:23;;;;;;;4.03;3.63;;;29.70;97.30;;;32.59;44.02;97937.63;10470649;28;20602;-69
2023/08/19 07:33:27;;;;;;;4.32;3.60;;;29.90;97.60;;;33.33;42.88;97941.50;10462421;28;20234;-68
2023/08/19 07:38:30;;;;;;;4.28;3.88;;;30.40;97.00;;;33.56;42.27;97943.41;10458329;28;20229;-69
2023/08/19 07:43:34;;;;;;;4.40;4.00;;;30.50;97.00;;;33.98;41.52;97935.72;10459059;28;20219;-68
2023/08/19 07:48:38;;;;;;;5.53;4.28;;;30.90;96.70;;;34.00;41.99;97943.63;10460349;28;20235;-68
2023/08/19 07:53:43;;;;;;;4.32;3.95;;;31.30;96.70;;;33.98;42.13;97941.03;10455925;28;20228;-69
2023/08/19 07:58:47;;;;;;;5.95;4.05;;;31.80;95.80;;;34.16;42.60;97943.97;10448338;28;20259;-68
2023/08/19 08:03:51;;;;;;;4.28;3.88;;;32.20;95.50;;;34.06;42.69;97946.97;10445163;28;20228;-68
2023/08/19 08:08:54;;;;;;;3.97;3.55;;;32.60;94.70;;;34.13;42.64;97944.09;10445189;28;20290;-68
2023/08/19 08:13:58;;;;;;;4.15;3.70;;;32.70;94.40;;;34.53;41.67;97949.63;10450824;28;20228;-68
2023/08/19 08:19:02;;;;;;;5.35;4.35;;;33.20;93.60;;;34.65;40.21;97940.34;10449943;28;20735;-68
2023/08/19 08:24:06;;;;;;;4.05;3.72;;;33.40;91.90;;;34.99;39.40;97942.53;10456800;28;20221;-69
2023/08/19 08:29:09;;;;;;;4.95;3.50;;;34.00;90.90;;;35.15;39.14;97940.16;10469820;28;20228;-68
2023/08/19 08:34:14;;;;;;;5.28;3.90;;;34.10;90.50;;;35.16;38.50;97930.41;10461100;28;20230;-68
2023/08/19 08:39:17;;;;;;;5.75;3.83;;;34.20;90.00;;;35.10;37.95;97934.16;10463544;28;20235;-68
2023/08/19 08:44:23;;;;;;;4.85;3.88;;;34.30;88.70;;;35.55;36.79;97927.00;10460905;28;20232;-67
2023/08/19 08:49:28;;;;;;;4.32;3.42;;;34.80;86.30;;;35.47;35.55;97934.44;10468536;28;20695;-67
2023/08/19 08:54:34;;;;;;;6.57;4.00;;;34.60;83.20;;;35.72;33.68;97937.81;10459596;28;20231;-68
2023/08/19 08:59:37;;;;;;;4.53;4.10;;;35.10;79.20;;;35.41;34.01;97939.09;10464323;28;20232;-69
2023/08/19 09:04:45;;;;;;;4.88;3.50;;;34.60;80.50;;;35.44;34.39;97935.44;10465717;28;20244;-68
2023/08/19 09:09:51;;;;;;;4.55;3.80;;;34.70;79.30;;;35.22;33.48;97942.56;10463180;28;20219;-69
2023/08/19 09:14:59;;;;;;;5.80;3.72;;;34.60;78.00;;;35.39;33.84;97940.94;10456729;28;20933;-68
2023/08/19 09:20:04;;;;;;;4.15;3.75;;;34.60;78.90;;;35.53;34.10;97947.47;10464168;28;20230;-69
2023/08/19 09:25:08;;;;;;;5.43;3.28;;;34.90;78.40;;;35.74;33.80;97948.38;10457018;28;20220;-69
2023/08/19 09:30:16;;;;;;;6.70;3.80;;;35.30;77.20;;;36.07;32.77;97940.75;10445321;28;20223;-69
2023/08/19 09:35:21;;;;;;;5.10;3.63;;;35.50;76.50;;;36.08;32.49;97934.50;10439779;28;20254;-68
2023/08/19 09:40:24;;;;;;;6.20;3.63;;;35.50;74.90;;;36.16;32.84;97948.31;10440455;28;20623;-68
2023/08/19 09:45:28;;;;;;;4.18;3.33;;;35.60;75.40;;;36.19;31.74;97947.31;10443514;28;20710;-69
2023/08/19 09:50:33;;;;;;;6.80;3.65;;;35.50;73.50;;;36.40;31.45;97941.03;10439101;28;20231;-68
2023/08/19 09:55:38;;;;;;;5.47;3.55;;;35.90;73.50;;;36.52;30.98;97928.94;10441720;28;20766;-69
2023/08/19 10:00:42;;;;;;;4.13;3.78;;;35.90;72.80;;;36.39;32.86;97938.44;10436266;28;20506;-68
2023/08/19 10:05:52;;;;;;;7.03;3.88;;;35.80;74.70;;;36.50;32.08;97928.16;10436020;28;20757;-68
2023/08/19 10:10:56;;;;;;;5.15;3.63;;;35.80;73.10;;;36.77;30.18;97928.66;10437712;28;20227;-68
2023/08/19 10:16:01;;;;;;;5.32;3.20;;;36.10;70.50;;;36.66;30.53;97934.53;10443120;28;20364;-68
2023/08/19 10:21:08;;;;;;;5.18;3.40;;;35.90;69.20;;;36.44;30.31;97936.44;10441625;28;20224;-69
2023/08/19 10:26:12;;;;;;;5.68;3.83;;;35.70;70.70;;;36.16;32.11;97936.81;10437859;28;20472;-68
2023/08/19 10:31:16;;;;;;;5.05;3.85;;;35.40;72.30;;;36.27;32.37;97939.84;10434802;28;20594;-68
2023/08/19 10:36:21;;;;;;;5.40;3.47;;;35.60;72.50;;;36.57;31.34;97936.72;10434816;28;20227;-69
2023/08/19 10:41:28;;;;;;;5.60;3.70;;;35.80;71.10;;;36.29;31.06;97933.53;10444674;28;20766;-68
2023/08/19 10:46:34;;;;;;;3.72;3.40;;;35.60;71.00;;;36.07;30.35;97938.09;10439179;28;20271;-69
2023/08/19 10:51:54;;;;;;;4.53;3.30;;;35.40;70.00;;;36.06;32.38;97934.56;10438366;28;20712;-68
2023/08/19 10:57:12;;;;;;;5.00;3.47;;;35.30;72.10;;;35.98;33.00;97935.81;10435846;28;20606;-68
2023/08/19 11:02:15;;;;;;;6.15;3.85;;;35.30;73.40;;;35.70;31.61;97938.81;10438716;28;20231;-69
2023/08/19 11:07:20;;;;;;;4.60;3.58;;;35.00;70.60;;;35.69;32.36;97937.09;10438243;28;20393;-68
2023/08/19 11:12:26;;;;;;;5.57;3.50;;;34.90;71.60;;;35.64;32.22;97932.81;10440755;28;20227;-69
2023/08/19 11:17:31;;;;;;;4.15;3.60;;;34.90;71.60;;;35.64;31.37;97931.97;10435973;28;20252;-68
2023/08/19 11:22:43;;;;;;;4.25;3.20;;;34.90;70.20;;;35.70;30.38;97931.69;10442097;28;20224;-69
2023/08/19 11:27:46;;;;;;;5.43;3.50;;;35.00;68.80;;;35.75;31.00;97936.81;10447059;28;20664;-68
2023/08/19 11:32:50;;;;;;;5.18;3.35;;;35.00;69.70;;;35.94;31.91;97931.53;10447095;28;20729;-68
2023/08/19 11:37:54;;;;;;;4.00;3.42;;;35.10;70.40;;;35.70;31.60;97936.16;10444471;28;20751;-68
2023/08/19 11:43:06;;;;;;;5.70;3.80;;;34.80;70.30;;;35.50;31.64;97926.34;10445148;28;20228;-68
2023/08/19 11:48:14;;;;;;;4.78;3.65;;;34.70;70.30;;;35.65;30.43;97926.56;10441306;28;20238;-68
2023/08/19 11:53:29;;;;;;;5.47;3.92;;;34.80;68.50;;;35.53;30.51;97921.75;10441820;28;20457;-68
2023/08/19 11:58:42;;;;;;;3.38;3.08;;;34.60;68.70;;;35.59;30.83;97916.19;10443817;28;20599;-68
2023/08/19 12:03:47;;;;;;;4.22;3.60;;;34.70;69.40;;;35.40;30.87;97916.09;10450876;28;20228;-68
2023/08/19 12:08:51;;;;;;;4.32;3.30;;;34.50;68.60;;;35.46;31.10;97914.13;10451907;28;20231;-68
2023/08/19 12:13:55;;;;;;;4.60;3.67;;;34.50;69.00;;;35.69;31.52;97921.13;10451099;28;20224;-68
2023/08/19 12:18:58;;;;;;;6.15;3.85;;;34.80;69.90;;;35.74;31.17;97920.00;10448371;28;21036;-68
2023/08/19 12:24:03;;;;;;;4.22;3.47;;;34.80;69.80;;;35.77;32.46;97925.19;10449640;28;20358;-68
2023/08/19 12:29:06;;;;;;;3.88;3.47;;;35.00;71.90;;;35.78;32.29;97926.91;10449178;28;20994;-68
2023/08/19 12:34:09;;;;;;;4.75;3.60;;;34.90;71.30;;;35.91;31.40;97937.88;10451160;28;20216;-68
2023/08/19 12:39:14;;;;;;;5.75;3.80;;;35.00;70.20;;;35.51;31.55;97939.56;10453908;28;20228;-68
2023/08/19 12:44:17;;;;;;;5.30;3.65;;;34.70;69.40;;;35.41;32.02;97933.78;10451982;28;20315;-69
2023/08/19 12:49:20;;;;;;;4.72;4.25;;;34.50;70.30;;;35.32;33.14;97935.97;10446719;28;20228;-68
2023/08/19 12:54:25;;;;;;;6.20;4.43;;;34.50;72.30;;;35.29;32.51;97944.06;10447034;28;20270;-69
2023/08/19 12:59:28;;;;;;;4.43;4.03;;;34.40;70.80;;;35.20;32.50;97940.84;10444614;28;20227;-69
2023/08/19 13:04:33;;;;;;;5.05;3.75;;;34.30;70.90;;;35.16;33.82;97935.72;10447766;28;20848;-68
2023/08/19 13:09:39;;;;;;;4.28;3.88;;;34.30;73.30;;;35.27;33.89;97938.78;10446140;28;20446;-68
2023/08/19 13:14:42;;;;;;;4.60;3.83;;;34.40;73.50;;;35.30;35.08;97949.31;10442942;28;20992;-68
2023/08/19 13:19:45;;;;;;;4.05;3.65;;;34.40;75.20;;;35.45;32.27;97944.28;10442907;28;20225;-68
2023/08/19 13:24:50;;;;;;;4.80;3.95;;;34.40;70.90;;;35.40;31.76;97952.47;10444735;28;20229;-68
2023/08/19 13:29:53;;;;;;;5.13;4.00;;;34.40;69.70;;;35.26;33.13;97945.06;10451551;28;20235;-68
2023/08/19 13:34:56;;;;;;;5.00;3.95;;;34.30;71.90;;;35.16;33.73;97943.69;10447143;28;20228;-68
2023/08/19 13:40:04;;;;;;;4.15;3.67;;;34.20;72.60;;;35.11;32.39;97945.66;10449626;28;20279;-68
2023/08/19 13:45:09;;;;;;;4.05;3.65;;;34.30;70.60;;;35.26;32.96;97949.50;10448721;28;20234;-68
2023/08/19 13:50:12;;;;;;;4.75;4.13;;;34.30;71.10;;;35.35;33.18;97955.31;10446237;28;20601;-69
2023/08/19 13:55:16;;;;;;;4.22;3.85;;;34.30;74.30;;;35.30;32.45;97956.41;10443953;28;20749;-69
2023/08/19 14:00:22;;;;;;;4.63;3.53;;;34.20;70.80;;;35.24;33.02;97954.88;10447038;28;20224;-70
2023/08/19 14:05:25;;;;;;;3.38;3.08;;;34.20;72.30;;;35.12;33.41;97958.91;10448418;28;20266;-69
2023/08/19 14:10:30;;;;;;;4.93;3.22;;;34.10;72.40;;;35.06;32.59;97959.16;10448564;28;20217;-70
2023/08/19 14:15:33;;;;;;;6.10;3.10;;;34.00;71.60;;;35.23;32.79;97962.91;10447006;28;20314;-70
2023/08/19 14:20:36;;;;;;;4.47;3.42;;;34.20;71.60;;;34.97;33.32;97972.78;10446098;28;20231;-70
2023/08/19 14:25:40;;;;;;;4.53;3.13;;;33.90;72.40;;;35.06;33.83;97968.94;10445933;28;20224;-70
2023/08/19 14:30:43;;;;;;;3.97;3.25;;;34.00;73.20;;;35.19;34.67;97975.47;10449487;28;20228;-70
2023/08/19 14:35:47;;;;;;;5.22;3.92;;;34.10;75.10;;;35.23;35.52;97982.41;10447874;28;20227;-69
2023/08/19 14:40:52;;;;;;;4.10;3.45;;;34.10;76.10;;;35.28;36.84;97980.41;10446060;28;20227;-69
2023/08/19 14:45:56;;;;;;;3.70;3.38;;;34.10;79.10;;;35.18;36.03;97984.38;10440783;28;20243;-67
2023/08/19 14:50:59;;;;;;;31.13;16.67;;;33.90;76.80;;;35.02;37.92;97994.69;10442148;28;20227;-67
2023/08/19 14:56:04;;;;;;;31.60;18.85;;;33.70;80.60;;;34.78;39.37;98001.84;10442626;28;20243;-68
2023/08/19 15:01:08;;;;;;;23.55;15.50;;;33.40;83.10;;;34.54;39.54;98009.78;10443367;28;20402;-67
2023/08/19 15:06:11;;;;;;;10.60;7.15;;;33.20;83.50;;;34.50;39.60;98021.44;10437965;28;20220;-67
2023/08/19 15:11:15;;;;;;;18.10;9.90;;;33.10;83.30;;;34.12;41.10;98037.91;10438375;28;20223;-67
2023/08/19 15:16:18;;;;;;;16.80;9.90;;;32.70;85.30;;;34.01;41.20;98036.44;10437459;28;20232;-67
2023/08/19 15:21:21;;;;;;;9.57;5.30;;;32.40;86.00;;;33.85;42.07;98048.47;10438682;28;20216;-67
2023/08/19 15:26:26;;;;;;;7.47;6.22;;;32.30;87.90;;;33.49;42.90;98040.81;10436652;28;20262;-67
2023/08/19 15:31:32;;;;;;;12.70;8.20;;;32.30;87.80;;;33.25;42.99;98050.38;10437340;28;20216;-67
2023/08/19 15:36:36;;;;;;;10.27;7.40;;;32.10;88.30;;;33.06;43.47;98050.09;10440547;28;20228;-67
2023/08/19 15:41:40;;;;;;;9.07;6.75;;;31.70;89.10;;;32.96;44.29;98053.91;10448597;28;20224;-67
2023/08/19 15:46:43;;;;;;;8.43;6.95;;;31.50;90.10;;;32.94;44.59;98048.66;10442045;28;20224;-67
2023/08/19 15:51:46;;;;;;;7.43;6.68;;;31.50;90.60;;;32.79;44.42;98050.88;10441565;28;20221;-67
2023/08/19 15:56:51;;;;;;;96.80;45.58;;;31.50;90.20;;;32.68;45.10;98052.09;10436959;28;20228;-68
2023/08/19 16:01:54;;;;;;;21.35;14.80;;;31.40;90.90;;;32.65;45.21;98060.13;10437751;28;20231;-67
2023/08/19 16:06:57;;;;;;;23.55;20.52;;;31.40;91.30;;;32.48;45.52;98073.81;10447528;28;20228;-67
2023/08/19 16:12:03;;;;;;;16.08;12.85;;;31.20;91.20;;;32.06;43.84;98070.50;10447497;28;20224;-67
2023/08/19 16:17:06;;;;;;;22.17;17.80;;;30.90;89.20;;;31.71;45.55;98082.81;10446093;28;20598;-67
2023/08/19 16:22:09;;;;;;;25.33;20.95;;;30.60;90.60;;;31.57;46.16;98083.13;10442958;28;20234;-67
2023/08/19 16:27:16;;;;;;;21.70;19.48;;;30.40;91.20;;;31.64;46.73;98079.44;10443712;28;20236;-67
2023/08/19 16:32:20;;;;;;;45.83;40.17;;;30.50;91.50;;;31.65;47.63;98088.25;10442117;28;20228;-67
2023/08/19 16:37:23;;;;;;;22.92;20.17;;;30.40;92.80;;;31.51;47.40;98093.00;10438498;28;20228;-67
2023/08/19 16:42:28;;;;;;;20.00;16.70;;;30.40;92.40;;;31.42;47.22;98089.66;10443523;28;20225;-67
2023/08/19 16:47:32;;;;;;;9.77;8.68;;;30.20;91.80;;;31.33;46.98;98103.03;10442076;28;20267;-67
2023/08/19 16:52:35;;;;;;;13.45;12.07;;;30.20;91.90;;;31.15;47.82;98106.09;10441157;28;20319;-68
2023/08/19 16:57:40;;;;;;;8.25;7.00;;;29.90;92.50;;;31.01;47.33;98111.66;10438844;28;20312;-67
2023/08/19 17:02:44;;;;;;;8.95;8.15;;;29.80;92.10;;;30.93;47.63;98116.22;10444483;23;20258;-68
2023/08/19 17:07:47;;;;;;;10.13;7.68;;;29.70;92.10;;;30.56;49.30;98130.09;10373592;28;20620;-67
2023/08/19 17:12:51;;;;;;;8.90;8.00;;;29.40;93.30;;;30.32;50.36;98139.34;10376921;28;20226;-67
2023/08/19 17:17:54;;;;;;;9.93;8.32;;;29.20;94.30;;;30.12;52.24;98141.44;10376958;28;20230;-68
2023/08/19 17:22:57;;;;;;;7.55;6.85;;;28.90;95.30;;;29.79;52.58;98143.69;10376033;28;20370;-68
2023/08/19 17:28:02;;;;;;;8.20;7.40;;;28.60;96.20;;;29.73;53.29;98152.59;10373007;28;20229;-68
2023/08/19 17:33:05;;;;;;;7.88;6.45;;;28.50;96.20;;;29.50;52.85;98152.00;10375438;28;20307;-67
2023/08/19 17:38:09;;;;;;;11.05;9.95;;;28.40;96.40;;;29.40;54.70;98151.28;10369398;28;20225;-68
2023/08/19 17:43:13;;;;;;;7.78;7.00;;;28.30;97.80;;;29.28;53.89;98147.03;10374143;28;20724;-68
2023/08/19 17:48:16;;;;;;;9.23;8.32;;;28.10;97.70;;;29.12;54.04;98162.16;10370943;28;20240;-70
2023/08/19 17:53:19;;;;;;;7.15;6.45;;;28.00;97.30;;;28.95;54.32;98158.81;10365489;28;20229;-71
2023/08/19 17:58:25;;;;;;;6.95;6.25;;;27.90;96.90;;;28.89;55.34;98167.66;10366289;28;20828;-70
2023/08/19 18:03:28;;;;;;;8.07;6.95;;;27.70;98.50;;;28.70;55.29;98156.47;10365881;28;20701;-70
2023/08/19 18:08:32;;;;;;;6.82;6.13;;;27.50;98.20;;;28.49;56.36;98159.31;10362052;28;20221;-68
2023/08/19 18:13:36;;;;;;;7.43;6.03;;;27.40;99.10;;;28.39;60.64;98157.66;10371726;28;20241;-68
2023/08/19 18:18:39;;;;;;;7.80;6.78;;;27.30;99.90;;;28.17;62.40;98157.81;10376426;28;20611;-69
2023/08/19 18:23:43;;;;;;;8.52;7.28;;;27.10;99.90;;;27.96;63.37;98147.50;10375190;28;20233;-69
2023/08/19 18:28:47;;;;;;;8.50;7.70;;;26.90;99.90;;;27.93;63.38;98158.91;10374034;28;20226;-70
2023/08/19 18:33:50;;;;;;;7.97;7.18;;;26.90;99.90;;;27.86;64.12;98154.56;10367583;28;20240;-70
2023/08/19 18:38:53;;;;;;;7.22;6.53;;;26.80;99.90;;;27.61;65.45;98157.34;10370640;28;20595;-69
2023/08/19 18:43:58;;;;;;;10.20;9.20;;;26.50;99.90;;;27.70;63.95;98180.06;10365228;28;20700;-70
2023/08/19 18:49:02;;;;;;;9.32;6.75;;;26.50;99.90;;;27.80;64.95;98192.25;10361834;28;20298;-70
2023/08/19 18:54:06;;;;;;;7.72;6.90;;;26.50;99.90;;;27.48;66.47;98196.81;10357951;28;20263;-71
2023/08/19 18:59:11;;;;;;;7.05;6.38;;;26.30;99.90;;;27.29;67.54;98194.25;10355969;28;20222;-70
2023/08/19 19:04:14;;;;;;;7.18;6.47;;;26.20;99.90;;;27.17;68.74;98189.06;10365217;28;21051;-70
2023/08/19 19:09:17;;;;;;;7.90;7.28;;;26.00;99.90;;;26.92;69.74;98196.97;10355881;28;20245;-70
2023/08/19 19:14:21;;;;;;;8.30;7.50;;;25.90;99.90;;;26.87;70.17;98190.88;10360703;28;20225;-70
2023/08/19 19:19:25;;;;;;;7.70;7.00;;;25.80;99.90;;;26.75;71.48;98188.25;10360932;28;20234;-70
2023/08/19 19:24:28;;;;;;;7.65;6.95;;;25.70;99.90;;;26.75;71.59;98188.25;10361687;28;20232;-71
2023/08/19 19:29:33;;;;;;;9.43;7.32;;;25.70;99.90;;;26.65;72.20;98194.44;10361707;28;20625;-70
2023/08/19 19:34:36;;;;;;;9.25;8.15;;;25.60;99.90;;;26.50;72.39;98187.47;10364275;28;20226;-69
2023/08/19 19:39:39;;;;;;;7.90;7.20;;;25.40;99.90;;;26.48;72.52;98190.03;10373465;28;20264;-69
2023/08/19 19:44:45;;;;;;;8.80;8.00;;;25.50;99.90;;;26.45;73.60;98195.28;10367653;28;20612;-71
2023/08/19 19:49:48;;;;;;;8.82;7.90;;;25.40;99.90;;;26.39;74.37;98203.16;10359461;28;20225;-71
2023/08/19 19:54:52;;;;;;;8.68;7.97;;;25.40;99.90;;;26.14;76.32;98212.75;10361133;28;20237;-71
2023/08/19 19:59:56;;;;;;;10.20;9.02;;;25.10;99.90;;;26.29;76.58;98209.25;10352639;28;20234;-71
2023/08/19 20:05:00;;;;;;;9.38;8.48;;;25.10;99.90;;;26.29;75.85;98207.50;10359624;28;20567;-70
2023/08/19 20:10:04;;;;;;;8.55;7.80;;;25.20;99.90;;;26.17;76.75;98206.66;10356426;28;20237;-72
2023/08/19 20:15:29;;;;;;;8.60;7.80;;;25.10;99.90;;;25.80;78.09;98214.44;10358479;28;20313;-70
2023/08/19 20:20:32;;;;;;;9.07;8.18;;;24.80;99.90;;;25.77;79.24;98222.28;10359574;28;20495;-71
2023/08/19 20:25:35;;;;;;;9.93;8.60;;;24.70;99.90;;;25.68;80.69;98219.66;10365824;28;20225;-71
2023/08/19 20:30:40;;;;;;;9.02;8.15;;;24.70;99.90;;;25.65;81.13;98214.41;10369063;28;20598;-68
2023/08/19 20:35:44;;;;;;;9.82;8.18;;;24.60;99.90;;;25.57;81.43;98217.00;10365797;28;20229;-70
2023/08/19 20:40:47;;;;;;;9.50;8.70;;;24.60;99.90;;;25.59;82.59;98231.84;10364793;28;20660;-69
2023/08/19 20:45:53;;;;;;;8.88;7.97;;;24.60;99.90;;;25.59;82.87;98231.84;10361469;28;20233;-70
2023/08/19 20:50:57;;;;;;;9.23;8.50;;;24.50;99.90;;;25.44;83.65;98236.13;10369359;28;20237;-70
2023/08/19 20:56:00;;;;;;;9.15;8.40;;;24.40;99.90;;;25.37;83.40;98237.84;10365053;28;20712;-69
2023/08/19 21:01:04;;;;;;;10.98;8.30;;;24.30;99.90;;;25.33;83.95;98243.97;10363579;28;20221;-70